Pagrindinis puslapis
METAR-TAF:

METAR-TAF

Oro uostai :

Sjenfuegosas, Kuba

platuma: 22-09N, ilguma: 080-24W, Aukštis: 39 m

Dabartinis oras

Ataskaita buvo paskelbta 28 minutes, ne 19:59 UTC
Vėjas 13 kt iš Pietų/Pietvakarių
Temperatūra 30°C
Drėgmė 70%
Slėgis 1010 hPa

METAR: MUCF 121959Z AUTO 21013KT 30/24 Q1010

Laikas: 16:27 (20:27 UTC)

Prognozė

Ataskaita buvo paskelbta 3 valandos ir 27 minutes, ne 17:00 UTC
Prognozė galioja nuo 12 metu 18 UTC su 13 metu 06 UTC
Vėjas 10 kt iš Pietvakarių
Matomumas: 9000 m
Išsisklaidę debesys ne aukštis 2000 ft
Tapsmas
nuo 13 metu 00 UTC su 13 metu 02 UTC
Vėjas 3 kt nuo kintamojo kryptimis

TAF: MUCF 121700Z 1218/1306 22010KT 9000 SCT020 BECMG 1300/1302 VRB03KT

Orai ataskaitas ir orų prognozės (METAR, TAF).

turimą stotys yra geltonos ir raudonos taškus žemėlapyje.

Perkelti pele per norėdami pamatyti stoties vardą.

Tada spustelėkite, norėdami matyti oro stebėjimo ir prognozės.

Norėdami pakeisti žemėlapį: spustelėkite ant žalios mygtukų su juodo kryžiaus žemyn,; žalią mygtuką su brūkšneliu, jei norite nutolinti; arba žalių rodyklių gretimoms žemėlapius.


METAR-TAF: